createdAt,value
2018-09-24T00:00:49.881Z,0.00
2018-09-24T00:01:49.780Z,0.00
2018-09-24T00:02:49.757Z,0.00
2018-09-24T00:03:49.739Z,0.00
2018-09-24T00:04:49.714Z,0.00
2018-09-24T00:05:49.699Z,0.00
2018-09-24T00:06:49.672Z,0.00
2018-09-24T00:07:49.653Z,0.00
2018-09-24T00:08:49.629Z,0.00
2018-09-24T00:09:49.606Z,0.00
2018-09-24T00:10:49.586Z,0.00
2018-09-24T00:11:49.564Z,0.00
2018-09-24T00:12:49.543Z,0.00
2018-09-24T00:13:49.521Z,0.00
2018-09-24T00:14:49.499Z,0.00
2018-09-24T00:15:49.479Z,0.00
2018-09-24T00:16:49.463Z,0.00
2018-09-24T00:17:49.436Z,0.00
2018-09-24T00:18:49.413Z,0.00
2018-09-24T00:19:49.394Z,0.00
2018-09-24T00:20:49.371Z,0.00
2018-09-24T00:21:49.348Z,0.00
2018-09-24T00:22:49.330Z,0.00
2018-09-24T00:23:49.307Z,0.00
2018-09-24T00:24:49.285Z,0.00
2018-09-24T00:25:49.265Z,0.00
2018-09-24T00:26:49.256Z,0.00
2018-09-24T00:27:49.220Z,0.00
2018-09-24T00:28:49.203Z,0.00
2018-09-24T00:29:49.179Z,0.00
2018-09-24T00:30:49.156Z,0.00
2018-09-24T00:31:49.134Z,0.00
2018-09-24T00:32:49.114Z,0.00
2018-09-24T00:33:49.090Z,0.00
2018-09-24T00:34:49.073Z,0.00
2018-09-24T00:35:49.050Z,0.00
2018-09-24T00:36:49.032Z,0.00
2018-09-24T00:37:49.008Z,0.00
2018-09-24T00:38:48.987Z,0.00
2018-09-24T00:39:48.965Z,0.00
2018-09-24T00:40:48.941Z,0.00
2018-09-24T00:41:48.922Z,0.00
2018-09-24T00:42:48.903Z,0.00
2018-09-24T00:43:48.884Z,0.00
2018-09-24T00:44:48.857Z,0.00
2018-09-24T00:45:48.836Z,0.00
2018-09-24T00:46:48.819Z,0.00
2018-09-24T00:47:48.793Z,0.00
2018-09-24T00:48:48.770Z,0.00
2018-09-24T00:49:48.747Z,0.00
2018-09-24T00:50:48.727Z,0.00
2018-09-24T00:51:48.706Z,0.00
2018-09-24T00:52:48.684Z,0.00
2018-09-24T00:53:48.666Z,0.00
2018-09-24T00:54:48.642Z,0.00
2018-09-24T00:55:48.623Z,0.00
2018-09-24T00:56:48.604Z,0.00
2018-09-24T00:57:48.581Z,0.00
2018-09-24T00:58:48.558Z,0.00
2018-09-24T00:59:48.537Z,0.00
2018-09-24T01:00:48.565Z,0.00
2018-09-24T01:01:48.498Z,0.00
2018-09-24T01:02:48.471Z,0.00
2018-09-24T01:03:48.452Z,0.00
2018-09-24T01:04:48.432Z,0.00
2018-09-24T01:05:48.407Z,0.00
2018-09-24T01:06:48.386Z,0.00
2018-09-24T01:07:48.368Z,0.00
2018-09-24T01:08:48.344Z,0.00
2018-09-24T01:09:48.324Z,0.00
2018-09-24T01:10:48.305Z,0.00
2018-09-24T01:11:48.281Z,0.00
2018-09-24T01:12:48.270Z,0.00
2018-09-24T01:13:48.242Z,0.00
2018-09-24T01:14:48.218Z,0.00
2018-09-24T01:15:48.197Z,0.00
2018-09-24T01:16:48.174Z,0.00
2018-09-24T01:17:48.154Z,0.00
2018-09-24T01:18:48.129Z,0.00
2018-09-24T01:19:48.110Z,0.00
2018-09-24T01:20:48.087Z,0.00
2018-09-24T01:21:48.065Z,0.00
2018-09-24T01:22:48.046Z,0.00
2018-09-24T01:23:48.023Z,0.00
2018-09-24T01:24:48.003Z,0.00
2018-09-24T01:25:47.980Z,0.00
2018-09-24T01:26:47.962Z,0.00
2018-09-24T01:27:47.938Z,0.00
2018-09-24T01:28:47.916Z,0.00
2018-09-24T01:29:47.893Z,0.00
2018-09-24T01:30:47.873Z,0.00
2018-09-24T01:31:47.854Z,0.00
2018-09-24T01:32:47.830Z,0.00
2018-09-24T01:33:47.809Z,0.00
2018-09-24T01:34:47.787Z,0.00
2018-09-24T01:35:47.765Z,0.00
2018-09-24T01:36:47.744Z,0.00
2018-09-24T01:37:47.724Z,0.00
2018-09-24T01:38:47.702Z,0.00
2018-09-24T01:39:47.682Z,0.00
2018-09-24T01:40:47.658Z,0.00
2018-09-24T01:41:47.634Z,0.00
2018-09-24T01:42:47.613Z,0.00
2018-09-24T01:43:47.592Z,0.00
2018-09-24T01:44:47.571Z,0.00
2018-09-24T01:45:47.551Z,0.00
2018-09-24T01:46:47.531Z,0.00
2018-09-24T01:47:47.506Z,0.00
2018-09-24T01:48:47.488Z,0.00
2018-09-24T01:49:47.467Z,0.00
2018-09-24T01:50:47.444Z,0.00
2018-09-24T01:51:47.421Z,0.00
2018-09-24T01:52:47.401Z,0.00
2018-09-24T01:53:47.377Z,0.00
2018-09-24T01:54:47.356Z,0.00
2018-09-24T01:55:47.335Z,0.00
2018-09-24T01:56:47.317Z,0.00
2018-09-24T01:57:47.298Z,0.00
2018-09-24T01:58:47.271Z,0.00
2018-09-24T01:59:47.258Z,0.00
2018-09-24T02:00:47.230Z,0.00
2018-09-24T02:01:47.209Z,0.00
2018-09-24T02:02:47.186Z,0.00
2018-09-24T02:03:47.166Z,0.00
2018-09-24T02:04:47.143Z,0.00
2018-09-24T02:05:47.122Z,0.00
2018-09-24T02:06:47.097Z,0.00
2018-09-24T02:07:47.077Z,0.00
2018-09-24T02:08:47.055Z,0.00
2018-09-24T02:09:47.038Z,0.00
2018-09-24T02:10:47.016Z,0.00
2018-09-24T02:11:46.991Z,0.00
2018-09-24T02:12:46.970Z,0.00
2018-09-24T02:13:46.946Z,0.00
2018-09-24T02:14:46.926Z,0.00
2018-09-24T02:15:46.906Z,0.00
2018-09-24T02:16:46.889Z,0.00
2018-09-24T02:17:46.868Z,0.00
2018-09-24T02:18:46.840Z,0.00
2018-09-24T02:19:46.818Z,0.00
2018-09-24T02:20:46.799Z,0.00
2018-09-24T02:21:46.778Z,0.00
2018-09-24T02:22:46.753Z,0.00
2018-09-24T02:23:46.733Z,0.00
2018-09-24T02:24:46.711Z,0.00
2018-09-24T02:25:46.686Z,0.00
2018-09-24T02:26:46.666Z,0.00
2018-09-24T02:27:46.645Z,0.00
2018-09-24T02:28:46.627Z,0.00
2018-09-24T02:29:46.605Z,0.00
2018-09-24T02:30:46.584Z,0.00
2018-09-24T02:31:46.558Z,0.00
2018-09-24T02:32:46.545Z,0.00
2018-09-24T02:33:46.516Z,0.00
2018-09-24T02:34:46.495Z,0.00
2018-09-24T02:35:46.472Z,0.00
2018-09-24T02:36:46.454Z,0.00
2018-09-24T02:37:46.428Z,0.00
2018-09-24T02:38:46.407Z,0.00
2018-09-24T02:39:46.386Z,0.00
2018-09-24T02:40:46.363Z,0.00
2018-09-24T02:41:46.342Z,0.00
2018-09-24T02:42:46.327Z,0.00
2018-09-24T02:43:46.299Z,0.00
2018-09-24T02:44:46.278Z,0.00
2018-09-24T02:45:46.264Z,0.00
2018-09-24T02:46:46.235Z,0.00
2018-09-24T02:47:46.221Z,0.00
2018-09-24T02:48:46.200Z,0.00
2018-09-24T02:49:46.170Z,0.00
2018-09-24T02:50:46.157Z,0.00
2018-09-24T02:51:46.126Z,0.00
2018-09-24T02:52:46.108Z,0.00
2018-09-24T02:53:46.084Z,0.00
2018-09-24T02:54:46.062Z,0.00
2018-09-24T02:55:46.042Z,0.00
2018-09-24T02:56:46.020Z,0.00
2018-09-24T02:57:45.998Z,0.00
2018-09-24T02:58:45.983Z,0.00
2018-09-24T02:59:45.962Z,0.00
2018-09-24T03:00:45.935Z,0.00
2018-09-24T03:01:45.911Z,0.00
2018-09-24T03:02:45.888Z,0.00
2018-09-24T03:03:45.868Z,0.00
2018-09-24T03:04:45.849Z,0.00
2018-09-24T03:05:45.825Z,0.00
2018-09-24T03:06:45.804Z,0.00
2018-09-24T03:07:45.790Z,0.00
2018-09-24T03:08:45.760Z,0.00
2018-09-24T03:09:45.736Z,0.00
2018-09-24T03:10:45.716Z,0.00
2018-09-24T03:11:45.695Z,0.00
2018-09-24T03:12:45.729Z,0.00
2018-09-24T03:13:45.656Z,0.00
2018-09-24T03:14:45.626Z,0.00
2018-09-24T03:15:45.608Z,0.00
2018-09-24T03:16:45.585Z,0.00
2018-09-24T03:17:45.570Z,0.00
2018-09-24T03:18:45.542Z,0.00
2018-09-24T03:19:45.521Z,0.00
2018-09-24T03:20:45.499Z,0.00
2018-09-24T03:21:45.477Z,0.00
2018-09-24T03:22:45.457Z,0.00
2018-09-24T03:23:45.434Z,0.00
2018-09-24T03:24:45.411Z,0.00
2018-09-24T03:25:45.389Z,0.00
2018-09-24T03:26:45.369Z,0.00
2018-09-24T03:27:45.345Z,0.00
2018-09-24T03:28:45.326Z,0.00
2018-09-24T03:29:45.303Z,0.00
2018-09-24T03:30:45.281Z,0.00
2018-09-24T03:31:45.257Z,0.00
2018-09-24T03:32:45.238Z,0.00
2018-09-24T03:33:45.218Z,0.00
2018-09-24T03:34:45.193Z,0.00
2018-09-24T03:35:45.172Z,0.00
2018-09-24T03:36:45.156Z,0.00
2018-09-24T03:37:45.138Z,0.00
2018-09-24T03:38:45.109Z,0.00
2018-09-24T03:39:45.085Z,0.00
2018-09-24T03:40:45.062Z,0.00
2018-09-24T03:41:45.099Z,0.00
2018-09-24T03:42:45.020Z,0.00
2018-09-24T03:43:44.998Z,0.00
2018-09-24T03:44:44.976Z,0.00
2018-09-24T03:45:44.956Z,0.00
2018-09-24T03:46:44.933Z,0.00
2018-09-24T03:47:44.912Z,0.00
2018-09-24T03:48:44.892Z,0.00
2018-09-24T03:49:44.870Z,0.00
2018-09-24T03:50:44.845Z,0.00
2018-09-24T03:51:44.829Z,0.00
2018-09-24T03:52:44.809Z,0.00
2018-09-24T03:53:44.780Z,0.00
2018-09-24T03:54:44.758Z,0.00
2018-09-24T03:55:44.741Z,0.00
2018-09-24T03:56:44.721Z,0.00
2018-09-24T03:57:44.696Z,0.00
2018-09-24T03:58:44.726Z,0.00
2018-09-24T03:59:44.651Z,0.00
2018-09-24T04:00:44.628Z,0.00
2018-09-24T04:01:44.606Z,0.00
2018-09-24T04:02:44.585Z,0.00
2018-09-24T04:03:44.564Z,0.00
2018-09-24T04:04:44.542Z,0.00
2018-09-24T04:05:44.518Z,0.00
2018-09-24T04:06:44.498Z,0.00
2018-09-24T04:07:44.475Z,0.00
2018-09-24T04:08:44.457Z,0.00
2018-09-24T04:09:44.512Z,0.00
2018-09-24T04:10:44.432Z,0.00
2018-09-24T04:11:44.391Z,0.00
2018-09-24T04:12:44.370Z,0.00
2018-09-24T04:13:44.345Z,0.00
2018-09-24T04:14:44.324Z,0.00
2018-09-24T04:15:44.301Z,0.00
2018-09-24T04:16:44.285Z,0.00
2018-09-24T04:17:44.258Z,0.00
2018-09-24T04:18:44.241Z,0.00
2018-09-24T04:19:44.217Z,0.00
2018-09-24T04:20:44.197Z,0.00
2018-09-24T04:21:44.175Z,0.00
2018-09-24T04:22:44.151Z,0.00
2018-09-24T04:23:44.131Z,0.00
2018-09-24T04:24:44.111Z,0.00
2018-09-24T04:25:44.085Z,0.00
2018-09-24T04:26:44.067Z,0.00
2018-09-24T04:27:44.040Z,0.00
2018-09-24T04:28:44.019Z,0.00
2018-09-24T04:29:43.996Z,0.00
2018-09-24T04:30:43.982Z,0.00
2018-09-24T04:31:43.954Z,0.00
2018-09-24T04:32:43.937Z,0.00
2018-09-24T04:33:43.909Z,0.00
2018-09-24T04:34:43.888Z,0.00
2018-09-24T04:35:43.866Z,0.00
2018-09-24T04:36:43.851Z,0.00
2018-09-24T04:37:43.824Z,0.00
2018-09-24T04:38:43.802Z,0.00
2018-09-24T04:39:43.780Z,0.00
2018-09-24T04:40:43.758Z,0.00
2018-09-24T04:41:43.737Z,0.00
2018-09-24T04:42:43.717Z,0.00
2018-09-24T04:43:43.693Z,0.00
2018-09-24T04:44:43.672Z,0.00
2018-09-24T04:45:43.649Z,0.00
2018-09-24T04:46:43.634Z,0.00
2018-09-24T04:47:43.604Z,0.00
2018-09-24T04:48:43.585Z,0.00
2018-09-24T04:49:43.560Z,0.00
2018-09-24T04:50:43.542Z,0.00
2018-09-24T04:51:43.519Z,0.00
2018-09-24T04:52:43.500Z,0.00
2018-09-24T04:53:43.477Z,0.00
2018-09-24T04:54:43.459Z,0.00
2018-09-24T04:55:43.433Z,0.00
2018-09-24T04:56:43.410Z,0.00
2018-09-24T04:57:43.388Z,0.00
2018-09-24T04:58:43.451Z,0.00
2018-09-24T04:59:43.343Z,0.00
2018-09-24T05:00:43.325Z,0.00
2018-09-24T05:01:43.302Z,0.00
2018-09-24T05:02:43.281Z,0.00
2018-09-24T05:03:43.262Z,0.00
2018-09-24T05:04:43.240Z,0.00
2018-09-24T05:05:43.211Z,0.00
2018-09-24T05:06:43.194Z,0.00
2018-09-24T05:07:43.169Z,0.00
2018-09-24T05:08:43.150Z,0.00
2018-09-24T05:09:43.130Z,0.00
2018-09-24T05:10:43.105Z,0.00
2018-09-24T05:11:43.082Z,0.00
2018-09-24T05:12:43.059Z,0.00
2018-09-24T05:13:43.083Z,0.00
2018-09-24T05:14:43.015Z,0.00
2018-09-24T05:15:42.994Z,0.00
2018-09-24T05:16:42.972Z,0.00
2018-09-24T05:17:42.961Z,0.00
2018-09-24T05:18:42.928Z,0.00
2018-09-24T05:19:42.906Z,0.00
2018-09-24T05:20:42.885Z,0.00
2018-09-24T05:21:42.893Z,0.00
2018-09-24T05:22:42.842Z,0.00
2018-09-24T05:23:42.823Z,0.00
2018-09-24T05:24:42.796Z,0.00
2018-09-24T05:25:42.775Z,0.00
2018-09-24T05:26:42.757Z,0.00
2018-09-24T05:27:42.731Z,0.00
2018-09-24T05:28:42.712Z,0.00
2018-09-24T05:29:42.687Z,0.00
2018-09-24T05:30:42.665Z,0.00
2018-09-24T05:31:42.643Z,0.00
2018-09-24T05:32:42.621Z,0.00
2018-09-24T05:33:42.600Z,0.00
2018-09-24T05:34:42.577Z,0.00
2018-09-24T05:35:42.555Z,0.00
2018-09-24T05:36:42.535Z,0.00
2018-09-24T05:37:42.515Z,0.00
2018-09-24T05:38:42.488Z,0.00
2018-09-24T05:39:42.470Z,0.00
2018-09-24T05:40:42.446Z,0.00
2018-09-24T05:41:42.430Z,0.00
2018-09-24T05:42:42.403Z,0.00
2018-09-24T05:43:42.381Z,0.00
2018-09-24T05:44:42.360Z,0.00
2018-09-24T05:45:42.339Z,0.00
2018-09-24T05:46:42.315Z,0.00
2018-09-24T05:47:42.293Z,0.00
2018-09-24T05:48:42.274Z,0.00
2018-09-24T05:49:42.252Z,0.00
2018-09-24T05:50:42.226Z,0.00
2018-09-24T05:51:42.205Z,0.00
2018-09-24T05:52:42.185Z,0.00
2018-09-24T05:53:42.161Z,0.00
2018-09-24T05:54:42.140Z,0.00
2018-09-24T05:55:42.117Z,0.00
2018-09-24T05:56:42.095Z,0.00
2018-09-24T05:57:42.081Z,0.00
2018-09-24T05:58:42.052Z,0.00
2018-09-24T05:59:42.031Z,0.00
2018-09-24T06:00:42.009Z,0.00
2018-09-24T06:01:41.987Z,0.00
2018-09-24T06:02:41.964Z,0.00
2018-09-24T06:03:41.942Z,0.00
2018-09-24T06:04:41.982Z,0.00
2018-09-24T06:05:41.900Z,0.00
2018-09-24T06:06:41.876Z,0.00
2018-09-24T06:07:41.854Z,0.00
2018-09-24T06:08:41.840Z,0.00
2018-09-24T06:09:41.814Z,0.00
2018-09-24T06:10:41.789Z,0.00
2018-09-24T06:11:41.809Z,0.00
2018-09-24T06:12:41.745Z,0.00
2018-09-24T06:13:41.791Z,0.00
2018-09-24T06:14:41.704Z,0.00
2018-09-24T06:15:41.689Z,0.00
2018-09-24T06:16:41.662Z,0.00
2018-09-24T06:17:41.637Z,0.00
2018-09-24T06:18:41.614Z,0.00
2018-09-24T06:19:41.594Z,0.00
2018-09-24T06:20:41.574Z,0.00
2018-09-24T06:21:41.556Z,0.00
2018-09-24T06:22:41.526Z,0.00
2018-09-24T06:23:41.509Z,0.00
2018-09-24T06:24:41.483Z,0.00
2018-09-24T06:25:41.468Z,0.00
2018-09-24T06:26:41.439Z,0.00
2018-09-24T06:27:41.419Z,5.63
2018-09-24T06:28:41.397Z,5.63
2018-09-24T06:29:41.375Z,5.63
2018-09-24T06:30:41.355Z,5.63
2018-09-24T06:31:41.332Z,5.63
2018-09-24T06:32:41.313Z,5.63
2018-09-24T06:33:41.289Z,5.63
2018-09-24T06:34:41.266Z,5.63
2018-09-24T06:35:41.244Z,0.00
2018-09-24T06:36:41.224Z,5.63
2018-09-24T06:37:41.200Z,5.63
2018-09-24T06:38:41.190Z,5.63
2018-09-24T06:39:41.158Z,5.63
2018-09-24T06:40:41.151Z,5.63
2018-09-24T06:41:41.118Z,5.63
2018-09-24T06:42:41.094Z,5.63
2018-09-24T06:43:41.072Z,5.63
2018-09-24T06:44:41.051Z,5.63
2018-09-24T06:45:41.027Z,11.25
2018-09-24T06:46:41.014Z,11.25
2018-09-24T06:47:40.984Z,11.25
2018-09-24T06:48:40.962Z,11.25
2018-09-24T06:49:40.978Z,11.25
2018-09-24T06:50:40.917Z,11.25
2018-09-24T06:51:40.901Z,11.25
2018-09-24T06:52:40.874Z,11.25
2018-09-24T06:53:40.850Z,11.25
2018-09-24T06:54:40.838Z,11.25
2018-09-24T06:55:40.809Z,11.25
2018-09-24T06:56:40.790Z,16.88
2018-09-24T06:57:40.766Z,16.88
2018-09-24T06:58:40.745Z,16.88
2018-09-24T06:59:40.760Z,16.88
2018-09-24T07:00:40.701Z,16.88
2018-09-24T07:01:40.688Z,16.88
2018-09-24T07:02:40.668Z,16.88
2018-09-24T07:03:40.635Z,16.88
2018-09-24T07:04:40.615Z,16.88
2018-09-24T07:05:40.594Z,16.88
2018-09-24T07:06:40.570Z,16.88
2018-09-24T07:07:40.549Z,16.88
2018-09-24T07:08:40.534Z,16.88
2018-09-24T07:09:40.504Z,16.88
2018-09-24T07:10:40.483Z,16.88
2018-09-24T07:11:40.463Z,22.50
2018-09-24T07:12:40.440Z,22.50
2018-09-24T07:13:40.419Z,22.50
2018-09-24T07:14:40.407Z,22.50
2018-09-24T07:15:40.375Z,22.50
2018-09-24T07:16:40.357Z,22.50
2018-09-24T07:17:40.333Z,22.50
2018-09-24T07:18:40.314Z,22.50
2018-09-24T07:19:40.293Z,22.50
2018-09-24T07:20:40.272Z,22.50
2018-09-24T07:21:40.255Z,22.50
2018-09-24T07:22:40.225Z,22.50
2018-09-24T07:23:40.206Z,22.50
2018-09-24T07:24:40.183Z,22.50
2018-09-24T07:25:40.164Z,22.50
2018-09-24T07:26:40.140Z,22.50
2018-09-24T07:27:40.173Z,22.50
2018-09-24T07:28:40.105Z,22.50
2018-09-24T07:29:40.077Z,22.50
2018-09-24T07:30:40.058Z,22.50
2018-09-24T07:31:40.045Z,22.50
2018-09-24T07:32:40.027Z,22.50
2018-09-24T07:33:39.991Z,22.50
2018-09-24T07:34:39.972Z,22.50
2018-09-24T07:35:39.949Z,22.50
2018-09-24T07:36:39.932Z,28.13
2018-09-24T07:37:39.935Z,28.13
2018-09-24T07:38:39.885Z,28.13
2018-09-24T07:39:39.867Z,28.13
2018-09-24T07:40:39.844Z,28.13
2018-09-24T07:41:39.825Z,28.13
2018-09-24T07:42:39.806Z,28.13
2018-09-24T07:43:39.783Z,28.13
2018-09-24T07:44:39.763Z,28.13
2018-09-24T07:45:39.737Z,28.13
2018-09-24T07:46:39.715Z,28.13
2018-09-24T07:47:39.694Z,28.13
2018-09-24T07:48:39.674Z,33.75
2018-09-24T07:49:39.655Z,33.75
2018-09-24T07:50:39.647Z,33.75
2018-09-24T07:51:39.610Z,33.75
2018-09-24T07:52:39.588Z,33.75
2018-09-24T07:53:39.570Z,33.75
2018-09-24T07:54:39.546Z,33.75
2018-09-24T07:55:39.611Z,33.75
2018-09-24T07:56:39.507Z,33.75
2018-09-24T07:57:39.487Z,33.75
2018-09-24T07:58:39.462Z,33.75
2018-09-24T07:59:39.441Z,39.38
2018-09-24T08:00:39.422Z,39.38
2018-09-24T08:01:39.400Z,39.38
2018-09-24T08:02:39.378Z,39.38
2018-09-24T08:03:39.359Z,39.38
2018-09-24T08:04:39.341Z,39.38
2018-09-24T08:05:39.321Z,39.38
2018-09-24T08:06:39.295Z,39.38
2018-09-24T08:07:39.275Z,39.38
2018-09-24T08:08:39.253Z,39.38
2018-09-24T08:09:39.232Z,39.38
2018-09-24T08:10:39.212Z,39.38
2018-09-24T08:11:39.191Z,39.38
2018-09-24T08:12:39.171Z,39.38
2018-09-24T08:13:39.149Z,39.38
2018-09-24T08:14:39.128Z,39.38
2018-09-24T08:15:39.113Z,39.38
2018-09-24T08:16:39.089Z,39.38
2018-09-24T08:17:39.067Z,39.38
2018-09-24T08:18:39.050Z,39.38
2018-09-24T08:19:39.023Z,39.38
2018-09-24T08:20:39.008Z,39.38
2018-09-24T08:21:38.996Z,39.38
2018-09-24T08:22:38.964Z,39.38
2018-09-24T08:23:38.944Z,33.75
2018-09-24T08:24:38.924Z,33.75
2018-09-24T08:25:38.908Z,33.75
2018-09-24T08:26:38.893Z,33.75
2018-09-24T08:27:38.860Z,33.75
2018-09-24T08:28:38.853Z,33.75
2018-09-24T08:29:38.821Z,33.75
2018-09-24T08:30:38.800Z,33.75
2018-09-24T08:31:38.785Z,28.13
2018-09-24T08:32:38.768Z,28.13
2018-09-24T08:33:38.750Z,28.13
2018-09-24T08:34:38.719Z,28.13
2018-09-24T08:35:38.706Z,28.13
2018-09-24T08:36:38.680Z,28.13
2018-09-24T08:37:38.656Z,28.13
2018-09-24T08:38:38.638Z,28.13
2018-09-24T08:39:38.614Z,28.13
2018-09-24T08:40:38.597Z,28.13
2018-09-24T08:41:38.573Z,28.13
2018-09-24T08:42:38.558Z,28.13
2018-09-24T08:43:38.533Z,28.13
2018-09-24T08:44:38.511Z,28.13
2018-09-24T08:45:38.491Z,28.13
2018-09-24T08:46:38.472Z,28.13
2018-09-24T08:47:38.450Z,28.13
2018-09-24T08:48:38.432Z,28.13
2018-09-24T08:49:38.425Z,28.13
2018-09-24T08:50:38.389Z,28.13
2018-09-24T08:51:38.378Z,28.13
2018-09-24T08:52:38.366Z,28.13
2018-09-24T08:53:38.328Z,28.13
2018-09-24T08:54:38.309Z,28.13
2018-09-24T08:55:38.294Z,28.13
2018-09-24T08:56:38.285Z,28.13
2018-09-24T08:57:38.254Z,28.13
2018-09-24T08:58:38.228Z,28.13
2018-09-24T08:59:38.212Z,28.13
2018-09-24T09:00:38.186Z,28.13
2018-09-24T09:01:38.164Z,28.13
2018-09-24T09:02:38.196Z,28.13
2018-09-24T09:03:38.126Z,33.75
2018-09-24T09:04:38.110Z,33.75
2018-09-24T09:05:38.091Z,33.75
2018-09-24T09:06:38.063Z,39.38
2018-09-24T09:07:38.045Z,39.38
2018-09-24T09:08:38.022Z,39.38
2018-09-24T09:09:38.005Z,39.38
2018-09-24T09:10:37.981Z,39.38
2018-09-24T09:11:37.968Z,39.38
2018-09-24T09:12:37.943Z,45.00
2018-09-24T09:13:37.923Z,33.75
2018-09-24T09:14:37.899Z,45.00
2018-09-24T09:15:37.883Z,45.00
2018-09-24T09:16:37.860Z,45.00
2018-09-24T09:17:37.838Z,45.00
2018-09-24T09:18:37.819Z,45.00
2018-09-24T09:19:37.805Z,45.00
2018-09-24T09:20:37.781Z,45.00
2018-09-24T09:21:37.759Z,45.00
2018-09-24T09:22:37.737Z,45.00
2018-09-24T09:23:37.732Z,45.00
2018-09-24T09:24:37.704Z,50.63
2018-09-24T09:25:37.682Z,50.63
2018-09-24T09:26:37.659Z,50.63
2018-09-24T09:27:37.642Z,50.63
2018-09-24T09:28:37.631Z,39.38
2018-09-24T09:29:37.600Z,11.25
2018-09-24T09:30:37.582Z,50.63
2018-09-24T09:31:37.563Z,50.63
2018-09-24T09:32:37.540Z,50.63
2018-09-24T09:33:37.519Z,56.25
2018-09-24T09:34:37.506Z,61.88
2018-09-24T09:35:37.481Z,45.00
2018-09-24T09:36:37.460Z,28.13
2018-09-24T09:37:37.444Z,39.38
2018-09-24T09:38:37.430Z,28.13
2018-09-24T09:39:37.402Z,16.88
2018-09-24T09:40:37.379Z,61.88
2018-09-24T09:41:37.362Z,61.88
2018-09-24T09:42:37.348Z,22.50
2018-09-24T09:43:37.325Z,16.88
2018-09-24T09:44:37.300Z,16.88
2018-09-24T09:45:37.288Z,16.88
2018-09-24T09:46:37.302Z,22.50
2018-09-24T09:47:37.243Z,61.88
2018-09-24T09:48:37.225Z,45.00
2018-09-24T09:49:37.201Z,22.50
2018-09-24T09:50:37.190Z,22.50
2018-09-24T09:51:37.167Z,28.13
2018-09-24T09:52:37.140Z,22.50
2018-09-24T09:53:37.182Z,33.75
2018-09-24T09:54:37.101Z,16.88
2018-09-24T09:55:37.079Z,28.13
2018-09-24T09:56:37.060Z,16.88
2018-09-24T09:57:37.039Z,61.88
2018-09-24T09:58:37.019Z,28.13
2018-09-24T09:59:37.000Z,67.50
2018-09-24T10:00:36.984Z,28.13
2018-09-24T10:01:36.957Z,33.75
2018-09-24T10:02:36.939Z,28.13
2018-09-24T10:03:36.919Z,28.13
2018-09-24T10:04:36.940Z,22.50
2018-09-24T10:05:36.877Z,16.88
2018-09-24T10:06:36.862Z,16.88
2018-09-24T10:07:36.840Z,22.50
2018-09-24T10:08:36.817Z,16.88
2018-09-24T10:09:36.798Z,16.88
2018-09-24T10:10:36.784Z,16.88
2018-09-24T10:11:36.763Z,16.88
2018-09-24T10:12:36.739Z,16.88
2018-09-24T10:13:36.722Z,22.50
2018-09-24T10:14:36.698Z,22.50
2018-09-24T10:15:36.681Z,22.50
2018-09-24T10:16:36.662Z,28.13
2018-09-24T10:17:36.650Z,50.63
2018-09-24T10:18:36.618Z,67.50
2018-09-24T10:19:36.596Z,61.88
2018-09-24T10:20:36.580Z,22.50
2018-09-24T10:21:36.561Z,61.88
2018-09-24T10:22:36.540Z,45.00
2018-09-24T10:23:36.517Z,61.88
2018-09-24T10:24:36.505Z,61.88
2018-09-24T10:25:36.479Z,61.88
2018-09-24T10:26:36.458Z,56.25
2018-09-24T10:27:36.440Z,56.25
2018-09-24T10:28:36.418Z,22.50
2018-09-24T10:29:36.403Z,61.88
2018-09-24T10:30:36.378Z,50.63
2018-09-24T10:31:36.359Z,67.50
2018-09-24T10:32:36.343Z,39.38
2018-09-24T10:33:36.336Z,33.75
2018-09-24T10:34:36.303Z,22.50
2018-09-24T10:35:36.280Z,67.50
2018-09-24T10:36:36.264Z,61.88
2018-09-24T10:37:36.243Z,22.50
2018-09-24T10:38:36.221Z,67.50
2018-09-24T10:39:36.256Z,67.50
2018-09-24T10:40:36.182Z,73.13
2018-09-24T10:41:36.160Z,73.13
2018-09-24T10:42:36.143Z,73.13
2018-09-24T10:43:36.134Z,39.38
2018-09-24T10:44:36.123Z,22.50
2018-09-24T10:45:36.090Z,22.50
2018-09-24T10:46:36.061Z,22.50
2018-09-24T10:47:36.045Z,22.50
2018-09-24T10:48:36.023Z,22.50
2018-09-24T10:49:36.008Z,28.13
2018-09-24T10:50:35.986Z,39.38
2018-09-24T10:51:35.970Z,45.00
2018-09-24T10:52:35.963Z,28.13
2018-09-24T10:53:35.933Z,22.50
2018-09-24T10:54:35.908Z,73.13
2018-09-24T10:55:35.888Z,73.13
2018-09-24T10:56:35.869Z,73.13
2018-09-24T10:57:35.849Z,73.13
2018-09-24T10:58:35.829Z,78.75
2018-09-24T10:59:35.881Z,78.75
2018-09-24T11:00:35.792Z,73.13
2018-09-24T11:01:35.771Z,50.63
2018-09-24T11:02:35.753Z,16.88
2018-09-24T11:03:35.732Z,16.88
2018-09-24T11:04:35.714Z,16.88
2018-09-24T11:05:35.693Z,16.88
2018-09-24T11:06:35.674Z,16.88
2018-09-24T11:07:35.652Z,22.50
2018-09-24T11:08:35.640Z,22.50
2018-09-24T11:09:35.614Z,28.13
2018-09-24T11:10:35.594Z,39.38
2018-09-24T11:11:35.578Z,61.88
2018-09-24T11:12:35.556Z,22.50
2018-09-24T11:13:35.544Z,16.88
2018-09-24T11:14:35.521Z,16.88
2018-09-24T11:15:35.565Z,16.88
2018-09-24T11:16:35.664Z,33.75
2018-09-24T11:17:35.664Z,67.50
2018-09-24T11:18:35.444Z,67.50
2018-09-24T11:19:35.419Z,67.50
2018-09-24T11:20:35.410Z,28.13
2018-09-24T11:21:35.397Z,61.88
2018-09-24T11:22:35.362Z,61.88
2018-09-24T11:23:35.367Z,67.50
2018-09-24T11:24:35.322Z,67.50
2018-09-24T11:25:35.309Z,67.50
2018-09-24T11:26:35.287Z,67.50
2018-09-24T11:27:35.268Z,67.50
2018-09-24T11:28:35.245Z,67.50
2018-09-24T11:29:35.271Z,67.50
2018-09-24T11:30:35.207Z,67.50
2018-09-24T11:31:35.199Z,22.50
2018-09-24T11:32:35.168Z,22.50
2018-09-24T11:33:35.151Z,67.50
2018-09-24T11:34:35.129Z,67.50
2018-09-24T11:35:35.111Z,16.88
2018-09-24T11:36:35.091Z,16.88
2018-09-24T11:37:35.122Z,22.50
2018-09-24T11:38:35.053Z,22.50
2018-09-24T11:39:35.035Z,73.13
2018-09-24T11:40:35.013Z,67.50
2018-09-24T11:41:34.999Z,67.50
2018-09-24T11:42:34.981Z,67.50
2018-09-24T11:43:34.955Z,16.88
2018-09-24T11:44:34.943Z,67.50
2018-09-24T11:45:34.917Z,67.50
2018-09-24T11:46:34.938Z,67.50
2018-09-24T11:47:34.880Z,67.50
2018-09-24T11:48:34.867Z,73.13
2018-09-24T11:49:34.842Z,22.50
2018-09-24T11:50:34.820Z,45.00
2018-09-24T11:51:34.803Z,73.13
2018-09-24T11:52:34.782Z,73.13
2018-09-24T11:53:34.763Z,67.50
2018-09-24T11:54:34.745Z,73.13
2018-09-24T11:55:34.726Z,67.50
2018-09-24T11:56:34.711Z,16.88
2018-09-24T11:57:34.688Z,22.50
2018-09-24T11:58:34.669Z,73.13
2018-09-24T11:59:34.649Z,73.13
2018-09-24T12:00:34.632Z,78.75
2018-09-24T12:01:34.615Z,78.75
2018-09-24T12:02:34.599Z,33.75
2018-09-24T12:03:34.574Z,22.50
2018-09-24T12:04:34.558Z,73.13
2018-09-24T12:05:34.538Z,56.25
2018-09-24T12:06:34.520Z,73.13
2018-09-24T12:07:34.501Z,28.13
2018-09-24T12:08:34.481Z,67.50
2018-09-24T12:09:34.464Z,67.50
2018-09-24T12:10:34.448Z,67.50
2018-09-24T12:11:34.423Z,67.50
2018-09-24T12:12:34.402Z,67.50
2018-09-24T12:13:34.392Z,67.50
2018-09-24T12:14:34.365Z,67.50
2018-09-24T12:15:34.351Z,67.50
2018-09-24T12:16:34.337Z,67.50
2018-09-24T12:17:34.310Z,67.50
2018-09-24T12:18:34.294Z,73.13
2018-09-24T12:19:34.272Z,73.13
2018-09-24T12:20:34.267Z,78.75
2018-09-24T12:21:34.235Z,78.75
2018-09-24T12:22:34.215Z,33.75
2018-09-24T12:23:34.205Z,50.63
2018-09-24T12:24:34.190Z,61.88
2018-09-24T12:25:34.171Z,84.38
2018-09-24T12:26:34.150Z,50.63
2018-09-24T12:27:34.127Z,22.50
2018-09-24T12:28:34.109Z,16.88
2018-09-24T12:29:34.089Z,16.88
2018-09-24T12:30:34.066Z,16.88
2018-09-24T12:31:34.051Z,61.88
2018-09-24T12:32:34.044Z,28.13
2018-09-24T12:33:34.010Z,28.13
2018-09-24T12:34:33.996Z,28.13
2018-09-24T12:35:33.974Z,22.50
2018-09-24T12:36:33.961Z,28.13
2018-09-24T12:37:33.939Z,50.63
2018-09-24T12:38:33.924Z,67.50
2018-09-24T12:39:33.912Z,67.50
2018-09-24T12:40:33.878Z,67.50
2018-09-24T12:41:33.866Z,67.50
2018-09-24T12:42:33.841Z,67.50
2018-09-24T12:43:33.832Z,61.88
2018-09-24T12:44:33.804Z,61.88
2018-09-24T12:45:33.782Z,61.88
2018-09-24T12:46:33.760Z,61.88
2018-09-24T12:47:33.745Z,67.50
2018-09-24T12:48:33.734Z,67.50
2018-09-24T12:49:33.703Z,67.50
2018-09-24T12:50:33.688Z,67.50
2018-09-24T12:51:33.666Z,67.50
2018-09-24T12:52:33.663Z,67.50
2018-09-24T12:53:33.711Z,67.50
2018-09-24T12:54:33.609Z,73.13
2018-09-24T12:55:33.594Z,39.38
2018-09-24T12:56:33.572Z,73.13
2018-09-24T12:57:33.557Z,78.75
2018-09-24T12:58:33.542Z,78.75
2018-09-24T12:59:33.524Z,33.75
2018-09-24T13:00:33.502Z,67.50
2018-09-24T13:01:33.483Z,73.13
2018-09-24T13:02:33.459Z,78.75
2018-09-24T13:03:33.454Z,33.75
2018-09-24T13:04:33.430Z,33.75
2018-09-24T13:05:33.404Z,39.38